sensor_id;sensor_type;location;lat;lon;timestamp;pressure;altitude;pressure_sealevel;temperature;humidity
13593;BME280;6867;50.998;4.250;2024-02-26T00:01:33;99246.41;;;8.61;nan
13593;BME280;6867;50.998;4.250;2024-02-26T00:04:00;99244.47;;;8.80;nan
13593;BME280;6867;50.998;4.250;2024-02-26T00:06:28;99240.03;;;8.85;nan
13593;BME280;6867;50.998;4.250;2024-02-26T00:08:54;99248.88;;;8.62;nan
13593;BME280;6867;50.998;4.250;2024-02-26T00:11:21;99238.38;;;8.61;nan
13593;BME280;6867;50.998;4.250;2024-02-26T00:13:48;99250.41;;;8.70;nan
13593;BME280;6867;50.998;4.250;2024-02-26T00:16:16;99251.22;;;8.82;nan
13593;BME280;6867;50.998;4.250;2024-02-26T00:18:42;99242.84;;;8.79;nan
13593;BME280;6867;50.998;4.250;2024-02-26T00:21:09;99243.53;;;8.62;nan
13593;BME280;6867;50.998;4.250;2024-02-26T00:23:38;99237.44;;;8.43;nan
13593;BME280;6867;50.998;4.250;2024-02-26T00:26:05;99237.00;;;8.82;nan
13593;BME280;6867;50.998;4.250;2024-02-26T00:28:31;99229.41;;;9.14;nan
13593;BME280;6867;50.998;4.250;2024-02-26T00:30:58;99231.28;;;8.90;nan
13593;BME280;6867;50.998;4.250;2024-02-26T00:33:26;99240.72;;;9.04;nan
13593;BME280;6867;50.998;4.250;2024-02-26T00:35:53;99230.34;;;9.08;nan
13593;BME280;6867;50.998;4.250;2024-02-26T00:38:19;99216.06;;;8.79;nan
13593;BME280;6867;50.998;4.250;2024-02-26T00:40:46;99235.16;;;8.70;nan
13593;BME280;6867;50.998;4.250;2024-02-26T00:43:13;99230.81;;;9.05;nan
13593;BME280;6867;50.998;4.250;2024-02-26T00:45:39;99218.13;;;9.00;nan
13593;BME280;6867;50.998;4.250;2024-02-26T00:48:07;99223.13;;;9.20;nan
13593;BME280;6867;50.998;4.250;2024-02-26T00:50:35;99227.69;;;8.84;nan
13593;BME280;6867;50.998;4.250;2024-02-26T00:53:01;99229.66;;;9.01;nan
13593;BME280;6867;50.998;4.250;2024-02-26T00:55:28;99240.13;;;9.14;nan
13593;BME280;6867;50.998;4.250;2024-02-26T00:57:55;99245.72;;;9.24;nan
13593;BME280;6867;50.998;4.250;2024-02-26T01:00:22;99238.84;;;9.05;nan
13593;BME280;6867;50.998;4.250;2024-02-26T01:02:48;99230.97;;;8.75;nan
13593;BME280;6867;50.998;4.250;2024-02-26T01:05:15;99248.53;;;8.82;nan
13593;BME280;6867;50.998;4.250;2024-02-26T01:07:44;99259.38;;;8.99;nan
13593;BME280;6867;50.998;4.250;2024-02-26T01:10:10;99268.19;;;8.64;nan
13593;BME280;6867;50.998;4.250;2024-02-26T01:12:37;99266.22;;;8.71;nan
13593;BME280;6867;50.998;4.250;2024-02-26T01:15:05;99274.94;;;8.67;nan
13593;BME280;6867;50.998;4.250;2024-02-26T01:17:31;99270.19;;;8.57;nan
13593;BME280;6867;50.998;4.250;2024-02-26T01:19:58;99268.44;;;8.63;nan
13593;BME280;6867;50.998;4.250;2024-02-26T01:22:25;99273.63;;;8.46;nan
13593;BME280;6867;50.998;4.250;2024-02-26T01:24:53;99263.31;;;8.61;nan
13593;BME280;6867;50.998;4.250;2024-02-26T01:27:19;99240.97;;;8.67;nan
13593;BME280;6867;50.998;4.250;2024-02-26T01:29:46;99243.06;;;8.89;nan
13593;BME280;6867;50.998;4.250;2024-02-26T01:32:13;99234.44;;;8.75;nan
13593;BME280;6867;50.998;4.250;2024-02-26T01:34:39;99236.53;;;8.50;nan
13593;BME280;6867;50.998;4.250;2024-02-26T01:37:06;99246.31;;;8.67;nan
13593;BME280;6867;50.998;4.250;2024-02-26T01:39:32;99229.56;;;8.72;nan
13593;BME280;6867;50.998;4.250;2024-02-26T01:42:01;99235.72;;;8.61;nan
13593;BME280;6867;50.998;4.250;2024-02-26T01:44:27;99248.16;;;8.55;nan
13593;BME280;6867;50.998;4.250;2024-02-26T01:46:54;99244.09;;;8.76;nan
13593;BME280;6867;50.998;4.250;2024-02-26T01:49:21;99242.94;;;8.72;nan
13593;BME280;6867;50.998;4.250;2024-02-26T01:51:48;99244.09;;;8.76;nan
13593;BME280;6867;50.998;4.250;2024-02-26T01:54:15;99247.69;;;8.93;nan
13593;BME280;6867;50.998;4.250;2024-02-26T01:56:42;99253.06;;;8.70;nan
13593;BME280;6867;50.998;4.250;2024-02-26T01:59:10;99247.25;;;8.50;nan
13593;BME280;6867;50.998;4.250;2024-02-26T02:01:38;99254.69;;;8.59;nan
13593;BME280;6867;50.998;4.250;2024-02-26T02:04:07;99250.84;;;8.55;nan
13593;BME280;6867;50.998;4.250;2024-02-26T02:06:35;99264.59;;;8.59;nan
13593;BME280;6867;50.998;4.250;2024-02-26T02:09:03;99265.63;;;8.58;nan
13593;BME280;6867;50.998;4.250;2024-02-26T02:11:32;99262.69;;;8.47;nan
13593;BME280;6867;50.998;4.250;2024-02-26T02:13:59;99264.97;;;8.32;nan
13593;BME280;6867;50.998;4.250;2024-02-26T02:16:27;99266.19;;;8.60;nan
13593;BME280;6867;50.998;4.250;2024-02-26T02:18:53;99260.13;;;8.53;nan
13593;BME280;6867;50.998;4.250;2024-02-26T02:21:21;99250.28;;;8.77;nan
13593;BME280;6867;50.998;4.250;2024-02-26T02:23:48;99246.66;;;8.59;nan
13593;BME280;6867;50.998;4.250;2024-02-26T02:26:15;99254.72;;;8.29;nan
13593;BME280;6867;50.998;4.250;2024-02-26T02:28:46;99262.34;;;8.14;nan
13593;BME280;6867;50.998;4.250;2024-02-26T02:31:14;99259.13;;;7.82;nan
13593;BME280;6867;50.998;4.250;2024-02-26T02:33:41;99271.63;;;7.99;nan
13593;BME280;6867;50.998;4.250;2024-02-26T02:36:08;99282.97;;;7.83;nan
13593;BME280;6867;50.998;4.250;2024-02-26T02:38:38;99282.13;;;8.13;nan
13593;BME280;6867;50.998;4.250;2024-02-26T02:41:06;99286.22;;;8.27;nan
13593;BME280;6867;50.998;4.250;2024-02-26T02:43:32;99270.97;;;8.46;nan
13593;BME280;6867;50.998;4.250;2024-02-26T02:45:59;99257.53;;;8.34;nan
13593;BME280;6867;50.998;4.250;2024-02-26T02:48:25;99257.97;;;8.31;nan
13593;BME280;6867;50.998;4.250;2024-02-26T02:50:52;99268.75;;;8.43;nan
13593;BME280;6867;50.998;4.250;2024-02-26T02:53:19;99262.50;;;8.31;nan
13593;BME280;6867;50.998;4.250;2024-02-26T02:55:47;99266.66;;;8.57;nan
13593;BME280;6867;50.998;4.250;2024-02-26T02:58:13;99269.25;;;8.21;nan
13593;BME280;6867;50.998;4.250;2024-02-26T03:00:40;99269.78;;;8.42;nan
13593;BME280;6867;50.998;4.250;2024-02-26T03:03:07;99265.09;;;7.95;nan
13593;BME280;6867;50.998;4.250;2024-02-26T03:05:33;99261.81;;;7.93;nan
13593;BME280;6867;50.998;4.250;2024-02-26T03:08:00;99264.97;;;7.90;nan
13593;BME280;6867;50.998;4.250;2024-02-26T03:10:29;99262.44;;;7.65;nan
13593;BME280;6867;50.998;4.250;2024-02-26T03:12:57;99269.28;;;7.91;nan
13593;BME280;6867;50.998;4.250;2024-02-26T03:15:24;99285.88;;;7.82;nan
13593;BME280;6867;50.998;4.250;2024-02-26T03:17:50;99284.69;;;8.08;nan
13593;BME280;6867;50.998;4.250;2024-02-26T03:20:17;99273.16;;;7.77;nan
13593;BME280;6867;50.998;4.250;2024-02-26T03:22:44;99282.59;;;7.80;nan
13593;BME280;6867;50.998;4.250;2024-02-26T03:25:11;99293.16;;;8.05;nan
13593;BME280;6867;50.998;4.250;2024-02-26T03:27:38;99296.44;;;8.18;nan
13593;BME280;6867;50.998;4.250;2024-02-26T03:30:10;99287.22;;;8.03;nan
13593;BME280;6867;50.998;4.250;2024-02-26T03:32:36;99288.50;;;8.00;nan
13593;BME280;6867;50.998;4.250;2024-02-26T03:35:03;99283.91;;;7.89;nan
13593;BME280;6867;50.998;4.250;2024-02-26T03:37:30;99287.63;;;7.88;nan
13593;BME280;6867;50.998;4.250;2024-02-26T03:39:57;99287.41;;;8.19;nan
13593;BME280;6867;50.998;4.250;2024-02-26T03:42:23;99282.06;;;8.19;nan
13593;BME280;6867;50.998;4.250;2024-02-26T03:44:50;99275.25;;;8.05;nan
13593;BME280;6867;50.998;4.250;2024-02-26T03:47:18;99286.31;;;8.09;nan
13593;BME280;6867;50.998;4.250;2024-02-26T03:49:45;99282.09;;;8.01;nan
13593;BME280;6867;50.998;4.250;2024-02-26T03:52:11;99288.84;;;7.73;nan
13593;BME280;6867;50.998;4.250;2024-02-26T03:54:38;99294.22;;;7.85;nan
13593;BME280;6867;50.998;4.250;2024-02-26T03:57:05;99302.91;;;7.81;nan
13593;BME280;6867;50.998;4.250;2024-02-26T03:59:31;99308.44;;;8.28;nan
13593;BME280;6867;50.998;4.250;2024-02-26T04:01:58;99285.84;;;8.12;nan
13593;BME280;6867;50.998;4.250;2024-02-26T04:04:28;99273.19;;;8.19;nan
13593;BME280;6867;50.998;4.250;2024-02-26T04:06:55;99294.41;;;8.32;nan
13593;BME280;6867;50.998;4.250;2024-02-26T04:09:21;99301.19;;;8.05;nan
13593;BME280;6867;50.998;4.250;2024-02-26T04:11:48;99300.53;;;7.91;nan
13593;BME280;6867;50.998;4.250;2024-02-26T04:14:15;99311.06;;;8.04;nan
13593;BME280;6867;50.998;4.250;2024-02-26T04:16:41;99316.66;;;7.84;nan
13593;BME280;6867;50.998;4.250;2024-02-26T04:19:08;99324.50;;;7.97;nan
13593;BME280;6867;50.998;4.250;2024-02-26T04:21:36;99324.88;;;8.01;nan
13593;BME280;6867;50.998;4.250;2024-02-26T04:24:03;99320.63;;;8.12;nan
13593;BME280;6867;50.998;4.250;2024-02-26T04:26:30;99321.47;;;7.94;nan
13593;BME280;6867;50.998;4.250;2024-02-26T04:28:57;99322.13;;;8.08;nan
13593;BME280;6867;50.998;4.250;2024-02-26T04:31:24;99323.75;;;8.09;nan
13593;BME280;6867;50.998;4.250;2024-02-26T04:33:52;99341.59;;;7.96;nan
13593;BME280;6867;50.998;4.250;2024-02-26T04:36:18;99340.84;;;8.08;nan
13593;BME280;6867;50.998;4.250;2024-02-26T04:38:46;99330.50;;;8.11;nan
13593;BME280;6867;50.998;4.250;2024-02-26T04:41:13;99338.97;;;7.78;nan
13593;BME280;6867;50.998;4.250;2024-02-26T04:43:40;99340.19;;;7.94;nan
13593;BME280;6867;50.998;4.250;2024-02-26T04:46:07;99358.56;;;7.90;nan
13593;BME280;6867;50.998;4.250;2024-02-26T04:48:34;99359.38;;;7.91;nan
13593;BME280;6867;50.998;4.250;2024-02-26T04:51:01;99367.47;;;8.03;nan
13593;BME280;6867;50.998;4.250;2024-02-26T04:53:28;99357.06;;;7.76;nan
13593;BME280;6867;50.998;4.250;2024-02-26T04:55:56;99353.72;;;7.62;nan
13593;BME280;6867;50.998;4.250;2024-02-26T04:58:23;99355.56;;;7.25;nan
13593;BME280;6867;50.998;4.250;2024-02-26T05:00:50;99376.66;;;7.52;nan
13593;BME280;6867;50.998;4.250;2024-02-26T05:03:16;99386.09;;;7.72;nan
13593;BME280;6867;50.998;4.250;2024-02-26T05:05:43;99367.06;;;7.44;nan
13593;BME280;6867;50.998;4.250;2024-02-26T05:08:10;99383.03;;;7.32;nan
13593;BME280;6867;50.998;4.250;2024-02-26T05:10:37;99395.31;;;7.58;nan
13593;BME280;6867;50.998;4.250;2024-02-26T05:13:07;99387.78;;;7.85;nan
13593;BME280;6867;50.998;4.250;2024-02-26T05:15:34;99391.81;;;7.58;nan
13593;BME280;6867;50.998;4.250;2024-02-26T05:18:01;99386.31;;;7.71;nan
13593;BME280;6867;50.998;4.250;2024-02-26T05:20:28;99386.84;;;7.80;nan
13593;BME280;6867;50.998;4.250;2024-02-26T05:22:54;99382.72;;;8.14;nan
13593;BME280;6867;50.998;4.250;2024-02-26T05:25:21;99378.25;;;7.78;nan
13593;BME280;6867;50.998;4.250;2024-02-26T05:27:48;99381.78;;;7.90;nan
13593;BME280;6867;50.998;4.250;2024-02-26T05:30:16;99387.13;;;7.71;nan
13593;BME280;6867;50.998;4.250;2024-02-26T05:32:43;99394.88;;;7.80;nan
13593;BME280;6867;50.998;4.250;2024-02-26T05:35:09;99390.53;;;7.97;nan
13593;BME280;6867;50.998;4.250;2024-02-26T05:37:36;99385.63;;;7.94;nan
13593;BME280;6867;50.998;4.250;2024-02-26T05:40:04;99389.50;;;7.80;nan
13593;BME280;6867;50.998;4.250;2024-02-26T05:42:31;99394.50;;;7.76;nan
13593;BME280;6867;50.998;4.250;2024-02-26T05:44:58;99406.00;;;7.95;nan
13593;BME280;6867;50.998;4.250;2024-02-26T05:47:32;99399.91;;;7.88;nan
13593;BME280;6867;50.998;4.250;2024-02-26T05:49:58;99407.16;;;8.17;nan
13593;BME280;6867;50.998;4.250;2024-02-26T05:52:26;99392.38;;;8.15;nan
13593;BME280;6867;50.998;4.250;2024-02-26T05:54:52;99388.84;;;7.84;nan
13593;BME280;6867;50.998;4.250;2024-02-26T05:57:19;99407.72;;;8.08;nan
13593;BME280;6867;50.998;4.250;2024-02-26T05:59:46;99415.81;;;7.83;nan
13593;BME280;6867;50.998;4.250;2024-02-26T06:02:13;99420.41;;;8.12;nan
13593;BME280;6867;50.998;4.250;2024-02-26T06:04:41;99420.59;;;8.29;nan
13593;BME280;6867;50.998;4.250;2024-02-26T06:07:07;99427.22;;;8.27;nan
13593;BME280;6867;50.998;4.250;2024-02-26T06:09:34;99424.03;;;8.18;nan
13593;BME280;6867;50.998;4.250;2024-02-26T06:12:01;99428.56;;;7.81;nan
13593;BME280;6867;50.998;4.250;2024-02-26T06:14:28;99448.09;;;8.36;nan
13593;BME280;6867;50.998;4.250;2024-02-26T06:16:54;99428.19;;;8.32;nan
13593;BME280;6867;50.998;4.250;2024-02-26T06:19:21;99425.50;;;7.77;nan
13593;BME280;6867;50.998;4.250;2024-02-26T06:21:49;99440.06;;;7.81;nan
13593;BME280;6867;50.998;4.250;2024-02-26T06:24:16;99448.56;;;7.78;nan
13593;BME280;6867;50.998;4.250;2024-02-26T06:26:43;99456.44;;;7.91;nan
13593;BME280;6867;50.998;4.250;2024-02-26T06:29:09;99459.53;;;8.25;nan
13593;BME280;6867;50.998;4.250;2024-02-26T06:31:37;99462.66;;;8.22;nan
13593;BME280;6867;50.998;4.250;2024-02-26T06:34:03;99470.53;;;8.35;nan
13593;BME280;6867;50.998;4.250;2024-02-26T06:36:30;99470.69;;;8.04;nan
13593;BME280;6867;50.998;4.250;2024-02-26T06:38:59;99486.31;;;7.63;nan
13593;BME280;6867;50.998;4.250;2024-02-26T06:41:26;99508.88;;;7.92;nan
13593;BME280;6867;50.998;4.250;2024-02-26T06:43:55;99506.94;;;7.99;nan
13593;BME280;6867;50.998;4.250;2024-02-26T06:46:22;99499.59;;;8.13;nan
13593;BME280;6867;50.998;4.250;2024-02-26T06:48:49;99511.72;;;8.16;nan
13593;BME280;6867;50.998;4.250;2024-02-26T06:51:16;99516.69;;;8.12;nan
13593;BME280;6867;50.998;4.250;2024-02-26T06:53:43;99512.81;;;8.27;nan
13593;BME280;6867;50.998;4.250;2024-02-26T06:56:11;99519.03;;;7.84;nan
13593;BME280;6867;50.998;4.250;2024-02-26T06:58:37;99529.91;;;8.07;nan
13593;BME280;6867;50.998;4.250;2024-02-26T07:01:04;99522.19;;;7.99;nan
13593;BME280;6867;50.998;4.250;2024-02-26T07:03:33;99540.72;;;7.94;nan
13593;BME280;6867;50.998;4.250;2024-02-26T07:06:00;99535.50;;;8.24;nan
13593;BME280;6867;50.998;4.250;2024-02-26T07:08:26;99531.34;;;8.28;nan
13593;BME280;6867;50.998;4.250;2024-02-26T07:10:53;99532.66;;;8.01;nan
13593;BME280;6867;50.998;4.250;2024-02-26T07:13:21;99542.44;;;8.07;nan
13593;BME280;6867;50.998;4.250;2024-02-26T07:15:48;99535.78;;;8.34;nan
13593;BME280;6867;50.998;4.250;2024-02-26T07:18:15;99560.91;;;7.65;nan
13593;BME280;6867;50.998;4.250;2024-02-26T07:20:42;99587.50;;;7.85;nan
13593;BME280;6867;50.998;4.250;2024-02-26T07:23:09;99569.28;;;8.00;nan
13593;BME280;6867;50.998;4.250;2024-02-26T07:25:35;99581.72;;;7.63;nan
13593;BME280;6867;50.998;4.250;2024-02-26T07:28:02;99599.53;;;7.94;nan
13593;BME280;6867;50.998;4.250;2024-02-26T07:30:30;99591.88;;;7.79;nan
13593;BME280;6867;50.998;4.250;2024-02-26T07:32:57;99596.66;;;7.70;nan
13593;BME280;6867;50.998;4.250;2024-02-26T07:35:23;99607.50;;;7.82;nan
13593;BME280;6867;50.998;4.250;2024-02-26T07:37:50;99611.06;;;7.69;nan
13593;BME280;6867;50.998;4.250;2024-02-26T07:40:17;99624.47;;;7.63;nan
13593;BME280;6867;50.998;4.250;2024-02-26T07:42:44;99623.06;;;7.85;nan
13593;BME280;6867;50.998;4.250;2024-02-26T07:45:10;99621.66;;;8.08;nan
13593;BME280;6867;50.998;4.250;2024-02-26T07:47:38;99607.09;;;7.47;nan
13593;BME280;6867;50.998;4.250;2024-02-26T07:50:07;99628.34;;;7.98;nan
13593;BME280;6867;50.998;4.250;2024-02-26T07:52:34;99613.25;;;7.79;nan
13593;BME280;6867;50.998;4.250;2024-02-26T07:55:01;99623.69;;;8.12;nan
13593;BME280;6867;50.998;4.250;2024-02-26T07:57:28;99616.25;;;7.89;nan
13593;BME280;6867;50.998;4.250;2024-02-26T07:59:54;99620.09;;;8.00;nan
13593;BME280;6867;50.998;4.250;2024-02-26T08:02:21;99625.72;;;8.35;nan
13593;BME280;6867;50.998;4.250;2024-02-26T08:04:49;99620.34;;;8.42;nan
13593;BME280;6867;50.998;4.250;2024-02-26T08:07:16;99625.53;;;8.37;nan
13593;BME280;6867;50.998;4.250;2024-02-26T08:09:43;99630.38;;;8.65;nan
13593;BME280;6867;50.998;4.250;2024-02-26T08:12:09;99608.31;;;8.26;nan
13593;BME280;6867;50.998;4.250;2024-02-26T08:14:36;99643.34;;;7.99;nan
13593;BME280;6867;50.998;4.250;2024-02-26T08:17:03;99655.06;;;7.98;nan
13593;BME280;6867;50.998;4.250;2024-02-26T08:19:30;99655.00;;;8.30;nan
13593;BME280;6867;50.998;4.250;2024-02-26T08:21:58;99648.00;;;8.54;nan
13593;BME280;6867;50.998;4.250;2024-02-26T08:24:24;99653.28;;;8.42;nan
13593;BME280;6867;50.998;4.250;2024-02-26T08:26:51;99660.44;;;8.23;nan
13593;BME280;6867;50.998;4.250;2024-02-26T08:29:18;99653.50;;;8.16;nan
13593;BME280;6867;50.998;4.250;2024-02-26T08:31:44;99672.81;;;8.18;nan
13593;BME280;6867;50.998;4.250;2024-02-26T08:34:11;99676.97;;;8.39;nan
13593;BME280;6867;50.998;4.250;2024-02-26T08:36:38;99684.00;;;8.08;nan
13593;BME280;6867;50.998;4.250;2024-02-26T08:39:06;99686.56;;;8.21;nan
13593;BME280;6867;50.998;4.250;2024-02-26T08:41:34;99696.84;;;7.93;nan
13593;BME280;6867;50.998;4.250;2024-02-26T08:44:01;99710.66;;;8.46;nan
13593;BME280;6867;50.998;4.250;2024-02-26T08:46:27;99690.00;;;8.29;nan
13593;BME280;6867;50.998;4.250;2024-02-26T08:48:54;99701.56;;;8.22;nan
13593;BME280;6867;50.998;4.250;2024-02-26T08:51:20;99712.94;;;8.18;nan
13593;BME280;6867;50.998;4.250;2024-02-26T08:53:47;99716.03;;;8.15;nan
13593;BME280;6867;50.998;4.250;2024-02-26T08:56:16;99715.88;;;8.10;nan
13593;BME280;6867;50.998;4.250;2024-02-26T08:58:43;99726.50;;;7.91;nan
13593;BME280;6867;50.998;4.250;2024-02-26T09:01:11;99733.19;;;8.07;nan
13593;BME280;6867;50.998;4.250;2024-02-26T09:03:38;99725.63;;;7.97;nan
13593;BME280;6867;50.998;4.250;2024-02-26T09:06:05;99733.63;;;8.29;nan
13593;BME280;6867;50.998;4.250;2024-02-26T09:08:32;99720.69;;;7.63;nan
13593;BME280;6867;50.998;4.250;2024-02-26T09:11:00;99755.34;;;7.83;nan
13593;BME280;6867;50.998;4.250;2024-02-26T09:13:30;99752.03;;;7.87;nan
13593;BME280;6867;50.998;4.250;2024-02-26T09:15:56;99759.16;;;8.00;nan
13593;BME280;6867;50.998;4.250;2024-02-26T09:18:24;99763.16;;;8.16;nan
13593;BME280;6867;50.998;4.250;2024-02-26T09:20:50;99750.25;;;8.06;nan
13593;BME280;6867;50.998;4.250;2024-02-26T09:23:17;99760.28;;;8.11;nan
13593;BME280;6867;50.998;4.250;2024-02-26T09:25:44;99755.81;;;8.05;nan
13593;BME280;6867;50.998;4.250;2024-02-26T09:28:11;99763.28;;;7.96;nan
13593;BME280;6867;50.998;4.250;2024-02-26T09:30:39;99774.06;;;8.14;nan
13593;BME280;6867;50.998;4.250;2024-02-26T09:33:05;99779.16;;;8.54;nan
13593;BME280;6867;50.998;4.250;2024-02-26T09:35:32;99768.84;;;8.58;nan
13593;BME280;6867;50.998;4.250;2024-02-26T09:37:59;99774.63;;;8.23;nan
13593;BME280;6867;50.998;4.250;2024-02-26T09:40:26;99784.72;;;8.21;nan
13593;BME280;6867;50.998;4.250;2024-02-26T09:42:59;99777.91;;;8.25;nan
13593;BME280;6867;50.998;4.250;2024-02-26T09:45:26;99788.31;;;8.40;nan
13593;BME280;6867;50.998;4.250;2024-02-26T09:47:56;99794.53;;;8.65;nan
13593;BME280;6867;50.998;4.250;2024-02-26T09:50:24;99780.75;;;8.30;nan
13593;BME280;6867;50.998;4.250;2024-02-26T09:52:51;99783.00;;;8.02;nan
13593;BME280;6867;50.998;4.250;2024-02-26T09:55:19;99798.75;;;8.16;nan
13593;BME280;6867;50.998;4.250;2024-02-26T09:57:46;99792.84;;;8.08;nan
13593;BME280;6867;50.998;4.250;2024-02-26T10:00:17;99826.06;;;8.25;nan
13593;BME280;6867;50.998;4.250;2024-02-26T10:02:45;99814.06;;;8.03;nan
13593;BME280;6867;50.998;4.250;2024-02-26T10:05:14;99834.94;;;8.57;nan
13593;BME280;6867;50.998;4.250;2024-02-26T10:07:44;99823.34;;;8.38;nan
13593;BME280;6867;50.998;4.250;2024-02-26T10:10:11;99828.97;;;8.23;nan
13593;BME280;6867;50.998;4.250;2024-02-26T10:12:37;99822.78;;;7.85;nan
13593;BME280;6867;50.998;4.250;2024-02-26T10:15:04;99851.13;;;8.31;nan
13593;BME280;6867;50.998;4.250;2024-02-26T10:17:31;99831.78;;;8.67;nan
13593;BME280;6867;50.998;4.250;2024-02-26T10:20:13;99841.97;;;7.75;nan
13593;BME280;6867;50.998;4.250;2024-02-26T10:22:41;99869.44;;;8.34;nan
13593;BME280;6867;50.998;4.250;2024-02-26T10:25:08;99855.53;;;8.57;nan
13593;BME280;6867;50.998;4.250;2024-02-26T10:27:35;99847.81;;;8.42;nan
13593;BME280;6867;50.998;4.250;2024-02-26T10:30:03;99851.31;;;8.36;nan
13593;BME280;6867;50.998;4.250;2024-02-26T10:32:30;99863.91;;;8.67;nan
13593;BME280;6867;50.998;4.250;2024-02-26T10:34:57;99858.34;;;7.85;nan
13593;BME280;6867;50.998;4.250;2024-02-26T10:37:25;99891.00;;;8.07;nan
13593;BME280;6867;50.998;4.250;2024-02-26T10:39:52;99891.22;;;7.99;nan
13593;BME280;6867;50.998;4.250;2024-02-26T10:42:18;99878.72;;;8.31;nan
13593;BME280;6867;50.998;4.250;2024-02-26T10:44:45;99893.84;;;8.12;nan
13593;BME280;6867;50.998;4.250;2024-02-26T10:47:14;99909.03;;;8.18;nan
13593;BME280;6867;50.998;4.250;2024-02-26T10:49:46;99902.94;;;8.05;nan
13593;BME280;6867;50.998;4.250;2024-02-26T10:52:14;99903.44;;;7.75;nan
13593;BME280;6867;50.998;4.250;2024-02-26T10:54:44;99926.13;;;8.11;nan
13593;BME280;6867;50.998;4.250;2024-02-26T10:57:13;99910.59;;;7.81;nan
13593;BME280;6867;50.998;4.250;2024-02-26T10:59:42;99941.66;;;7.95;nan
13593;BME280;6867;50.998;4.250;2024-02-26T11:02:10;99938.06;;;8.15;nan
13593;BME280;6867;50.998;4.250;2024-02-26T11:04:39;99925.38;;;7.97;nan
13593;BME280;6867;50.998;4.250;2024-02-26T11:07:06;99939.72;;;8.16;nan
13593;BME280;6867;50.998;4.250;2024-02-26T11:09:34;99930.16;;;7.82;nan
13593;BME280;6867;50.998;4.250;2024-02-26T11:12:04;99942.06;;;7.86;nan
13593;BME280;6867;50.998;4.250;2024-02-26T11:14:36;99955.06;;;7.82;nan
13593;BME280;6867;50.998;4.250;2024-02-26T11:17:02;99946.25;;;8.27;nan
13593;BME280;6867;50.998;4.250;2024-02-26T11:19:30;99948.63;;;7.90;nan
13593;BME280;6867;50.998;4.250;2024-02-26T11:21:58;99955.78;;;8.09;nan
13593;BME280;6867;50.998;4.250;2024-02-26T11:24:26;99962.75;;;8.17;nan
13593;BME280;6867;50.998;4.250;2024-02-26T11:26:55;99960.66;;;8.32;nan
13593;BME280;6867;50.998;4.250;2024-02-26T11:29:29;99947.03;;;7.82;nan
13593;BME280;6867;50.998;4.250;2024-02-26T11:31:58;99971.13;;;8.34;nan
13593;BME280;6867;50.998;4.250;2024-02-26T11:34:26;99955.81;;;8.03;nan
13593;BME280;6867;50.998;4.250;2024-02-26T11:36:54;99971.88;;;7.96;nan
13593;BME280;6867;50.998;4.250;2024-02-26T11:39:22;99968.38;;;7.95;nan
13593;BME280;6867;50.998;4.250;2024-02-26T11:41:50;99988.94;;;8.02;nan
13593;BME280;6867;50.998;4.250;2024-02-26T11:44:28;99980.94;;;7.95;nan
13593;BME280;6867;50.998;4.250;2024-02-26T11:46:56;99979.91;;;8.03;nan
13593;BME280;6867;50.998;4.250;2024-02-26T11:49:31;99991.56;;;8.21;nan
13593;BME280;6867;50.998;4.250;2024-02-26T11:51:58;99973.06;;;8.13;nan
13593;BME280;6867;50.998;4.250;2024-02-26T11:54:39;99999.75;;;8.33;nan
13593;BME280;6867;50.998;4.250;2024-02-26T11:57:29;99988.22;;;8.39;nan
13593;BME280;6867;50.998;4.250;2024-02-26T12:02:51;99976.63;;;7.81;84.73
13593;BME280;6867;50.998;4.250;2024-02-26T12:05:23;100006.16;;;8.19;85.03
13593;BME280;6867;50.998;4.250;2024-02-26T12:07:53;99984.09;;;7.65;85.15
13593;BME280;6867;50.998;4.250;2024-02-26T12:10:24;100016.13;;;7.92;86.25
13593;BME280;6867;50.998;4.250;2024-02-26T12:12:58;99998.88;;;7.61;85.71
13593;BME280;6867;50.998;4.250;2024-02-26T12:15:30;100018.81;;;7.79;85.27
13593;BME280;6867;50.998;4.250;2024-02-26T12:18:00;100019.59;;;7.92;85.26
13593;BME280;6867;50.998;4.250;2024-02-26T12:20:28;100021.06;;;7.35;86.05
13593;BME280;6867;50.998;4.250;2024-02-26T12:22:55;100029.06;;;7.88;85.66
13593;BME280;6867;50.998;4.250;2024-02-26T12:25:25;100034.03;;;7.45;86.30
13593;BME280;6867;50.998;4.250;2024-02-26T12:27:53;100022.19;;;8.26;84.50
13593;BME280;6867;50.998;4.250;2024-02-26T12:30:19;100029.44;;;8.12;84.56
13593;BME280;6867;50.998;4.250;2024-02-26T12:32:47;100037.19;;;8.40;84.54
13593;BME280;6867;50.998;4.250;2024-02-26T12:35:15;100023.31;;;7.91;83.79
13593;BME280;6867;50.998;4.250;2024-02-26T12:37:43;100040.59;;;7.95;85.05
13593;BME280;6867;50.998;4.250;2024-02-26T12:40:11;100050.25;;;7.90;85.50
13593;BME280;6867;50.998;4.250;2024-02-26T12:42:38;100043.03;;;7.97;84.39
13593;BME280;6867;50.998;4.250;2024-02-26T12:45:07;100048.38;;;8.10;84.63
13593;BME280;6867;50.998;4.250;2024-02-26T12:47:38;100052.16;;;7.69;84.80
13593;BME280;6867;50.998;4.250;2024-02-26T12:50:06;100072.69;;;7.89;85.31
13593;BME280;6867;50.998;4.250;2024-02-26T12:52:35;100087.03;;;8.14;85.31
13593;BME280;6867;50.998;4.250;2024-02-26T12:55:03;100069.00;;;7.83;85.05
13593;BME280;6867;50.998;4.250;2024-02-26T12:57:31;100096.94;;;8.07;85.68
13593;BME280;6867;50.998;4.250;2024-02-26T12:59:59;100081.72;;;8.08;85.05
13593;BME280;6867;50.998;4.250;2024-02-26T13:02:26;100082.38;;;7.70;85.01
13593;BME280;6867;50.998;4.250;2024-02-26T13:04:53;100074.34;;;7.70;84.70
13593;BME280;6867;50.998;4.250;2024-02-26T13:07:20;100098.19;;;7.91;84.79
13593;BME280;6867;50.998;4.250;2024-02-26T13:09:49;100100.63;;;8.26;84.68
13593;BME280;6867;50.998;4.250;2024-02-26T13:12:16;100089.09;;;8.26;83.75
13593;BME280;6867;50.998;4.250;2024-02-26T13:14:43;100096.94;;;8.01;83.90
13593;BME280;6867;50.998;4.250;2024-02-26T13:17:10;100105.41;;;7.91;84.71
13593;BME280;6867;50.998;4.250;2024-02-26T13:19:36;100124.50;;;8.21;84.41
13593;BME280;6867;50.998;4.250;2024-02-26T13:22:04;100139.34;;;8.04;85.15
13593;BME280;6867;50.998;4.250;2024-02-26T13:24:31;100137.66;;;8.49;84.52
13593;BME280;6867;50.998;4.250;2024-02-26T13:26:59;100113.41;;;7.84;84.05
13593;BME280;6867;50.998;4.250;2024-02-26T13:29:28;100155.19;;;7.98;84.81
13593;BME280;6867;50.998;4.250;2024-02-26T13:31:55;100141.81;;;8.12;84.56
13593;BME280;6867;50.998;4.250;2024-02-26T13:34:24;100165.03;;;7.78;85.30
13593;BME280;6867;50.998;4.250;2024-02-26T13:36:52;100172.66;;;8.21;85.71
13593;BME280;6867;50.998;4.250;2024-02-26T13:39:22;100169.78;;;8.29;85.26
13593;BME280;6867;50.998;4.250;2024-02-26T13:41:50;100162.56;;;8.10;85.24
13593;BME280;6867;50.998;4.250;2024-02-26T13:44:19;100171.81;;;7.94;85.89